sensor_id;sensor_type;location;lat;lon;timestamp;temperature;humidity
39675;DHT22;27790;50.840;4.386;2023-12-28T00:00:17;11.90;99.90
39675;DHT22;27790;50.840;4.386;2023-12-28T00:02:43;11.80;99.90
39675;DHT22;27790;50.840;4.386;2023-12-28T00:05:08;12.00;99.90
39675;DHT22;27790;50.840;4.386;2023-12-28T00:07:34;12.00;99.90
39675;DHT22;27790;50.840;4.386;2023-12-28T00:10:01;12.10;99.90
39675;DHT22;27790;50.840;4.386;2023-12-28T00:12:27;12.00;99.90
39675;DHT22;27790;50.840;4.386;2023-12-28T00:14:53;12.10;99.90
39675;DHT22;27790;50.840;4.386;2023-12-28T00:17:18;12.10;99.90
39675;DHT22;27790;50.840;4.386;2023-12-28T00:19:44;12.10;99.90
39675;DHT22;27790;50.840;4.386;2023-12-28T00:22:09;12.00;99.90
39675;DHT22;27790;50.840;4.386;2023-12-28T00:24:35;12.10;99.90
39675;DHT22;27790;50.840;4.386;2023-12-28T00:27:00;12.10;99.90
39675;DHT22;27790;50.840;4.386;2023-12-28T00:29:26;12.10;99.90
39675;DHT22;27790;50.840;4.386;2023-12-28T00:31:54;12.10;99.90
39675;DHT22;27790;50.840;4.386;2023-12-28T00:34:19;12.00;99.90
39675;DHT22;27790;50.840;4.386;2023-12-28T00:36:45;12.00;99.90
39675;DHT22;27790;50.840;4.386;2023-12-28T00:39:10;12.00;99.90
39675;DHT22;27790;50.840;4.386;2023-12-28T00:41:36;12.00;99.90
39675;DHT22;27790;50.840;4.386;2023-12-28T00:44:01;11.90;99.90
39675;DHT22;27790;50.840;4.386;2023-12-28T00:46:27;12.10;99.90
39675;DHT22;27790;50.840;4.386;2023-12-28T00:48:53;12.10;99.90
39675;DHT22;27790;50.840;4.386;2023-12-28T00:51:20;12.10;99.90
39675;DHT22;27790;50.840;4.386;2023-12-28T00:53:45;12.00;99.90
39675;DHT22;27790;50.840;4.386;2023-12-28T00:56:11;12.00;99.90
39675;DHT22;27790;50.840;4.386;2023-12-28T00:58:40;12.10;99.90
39675;DHT22;27790;50.840;4.386;2023-12-28T01:01:06;12.00;99.90
39675;DHT22;27790;50.840;4.386;2023-12-28T01:03:31;11.90;99.90
39675;DHT22;27790;50.840;4.386;2023-12-28T01:05:57;11.80;99.90
39675;DHT22;27790;50.840;4.386;2023-12-28T01:08:22;11.80;99.90
39675;DHT22;27790;50.840;4.386;2023-12-28T01:10:48;11.80;99.90
39675;DHT22;27790;50.840;4.386;2023-12-28T01:13:13;11.80;99.90
39675;DHT22;27790;50.840;4.386;2023-12-28T01:15:39;11.80;99.90
39675;DHT22;27790;50.840;4.386;2023-12-28T01:18:04;11.80;99.90
39675;DHT22;27790;50.840;4.386;2023-12-28T01:20:30;11.70;99.90
39675;DHT22;27790;50.840;4.386;2023-12-28T01:22:55;11.70;99.90
39675;DHT22;27790;50.840;4.386;2023-12-28T01:25:21;11.70;99.90
39675;DHT22;27790;50.840;4.386;2023-12-28T01:27:46;11.70;99.90
39675;DHT22;27790;50.840;4.386;2023-12-28T01:30:12;11.80;99.90
39675;DHT22;27790;50.840;4.386;2023-12-28T01:32:37;11.70;99.90
39675;DHT22;27790;50.840;4.386;2023-12-28T01:35:03;11.60;99.90
39675;DHT22;27790;50.840;4.386;2023-12-28T01:37:29;11.60;99.90
39675;DHT22;27790;50.840;4.386;2023-12-28T01:39:56;11.60;99.90
39675;DHT22;27790;50.840;4.386;2023-12-28T01:42:22;11.70;99.90
39675;DHT22;27790;50.840;4.386;2023-12-28T01:44:47;11.60;99.90
39675;DHT22;27790;50.840;4.386;2023-12-28T01:47:13;11.60;99.90
39675;DHT22;27790;50.840;4.386;2023-12-28T01:49:39;11.60;99.90
39675;DHT22;27790;50.840;4.386;2023-12-28T01:52:06;11.70;99.90
39675;DHT22;27790;50.840;4.386;2023-12-28T01:54:32;11.60;99.90
39675;DHT22;27790;50.840;4.386;2023-12-28T01:57:00;11.70;99.90
39675;DHT22;27790;50.840;4.386;2023-12-28T01:59:27;11.70;99.90
39675;DHT22;27790;50.840;4.386;2023-12-28T02:01:52;11.70;99.90
39675;DHT22;27790;50.840;4.386;2023-12-28T02:04:18;11.70;99.90
39675;DHT22;27790;50.840;4.386;2023-12-28T02:06:52;11.70;99.90
39675;DHT22;27790;50.840;4.386;2023-12-28T02:09:18;11.60;99.90
39675;DHT22;27790;50.840;4.386;2023-12-28T02:11:43;11.60;99.90
39675;DHT22;27790;50.840;4.386;2023-12-28T02:14:09;11.60;99.90
39675;DHT22;27790;50.840;4.386;2023-12-28T02:16:43;11.60;99.90
39675;DHT22;27790;50.840;4.386;2023-12-28T02:19:31;11.70;99.90
39675;DHT22;27790;50.840;4.386;2023-12-28T02:21:59;11.60;99.90
39675;DHT22;27790;50.840;4.386;2023-12-28T02:24:25;11.80;99.90
39675;DHT22;27790;50.840;4.386;2023-12-28T02:26:50;11.70;99.90
39675;DHT22;27790;50.840;4.386;2023-12-28T02:29:16;11.70;99.90
39675;DHT22;27790;50.840;4.386;2023-12-28T02:31:58;11.70;99.90
39675;DHT22;27790;50.840;4.386;2023-12-28T02:34:29;11.70;99.90
39675;DHT22;27790;50.840;4.386;2023-12-28T02:36:56;11.90;99.90
39675;DHT22;27790;50.840;4.386;2023-12-28T02:39:24;12.00;99.90
39675;DHT22;27790;50.840;4.386;2023-12-28T02:41:50;12.10;99.90
39675;DHT22;27790;50.840;4.386;2023-12-28T02:44:15;12.10;99.90
39675;DHT22;27790;50.840;4.386;2023-12-28T02:46:41;12.10;99.90
39675;DHT22;27790;50.840;4.386;2023-12-28T02:49:07;12.20;99.90
39675;DHT22;27790;50.840;4.386;2023-12-28T02:51:32;12.10;99.90
39675;DHT22;27790;50.840;4.386;2023-12-28T02:53:58;12.30;99.90
39675;DHT22;27790;50.840;4.386;2023-12-28T02:56:23;12.10;99.90
39675;DHT22;27790;50.840;4.386;2023-12-28T02:58:49;12.00;99.90
39675;DHT22;27790;50.840;4.386;2023-12-28T03:01:14;11.90;99.90
39675;DHT22;27790;50.840;4.386;2023-12-28T03:03:40;11.90;99.90
39675;DHT22;27790;50.840;4.386;2023-12-28T03:06:05;12.00;99.90
39675;DHT22;27790;50.840;4.386;2023-12-28T03:08:31;11.80;99.90
39675;DHT22;27790;50.840;4.386;2023-12-28T03:10:56;11.80;99.90
39675;DHT22;27790;50.840;4.386;2023-12-28T03:13:22;11.80;99.90
39675;DHT22;27790;50.840;4.386;2023-12-28T03:15:48;11.80;99.90
39675;DHT22;27790;50.840;4.386;2023-12-28T03:18:13;11.80;99.90
39675;DHT22;27790;50.840;4.386;2023-12-28T03:20:39;11.90;99.90
39675;DHT22;27790;50.840;4.386;2023-12-28T03:23:04;12.00;99.90
39675;DHT22;27790;50.840;4.386;2023-12-28T03:25:30;12.00;99.90
39675;DHT22;27790;50.840;4.386;2023-12-28T03:27:55;11.90;99.90
39675;DHT22;27790;50.840;4.386;2023-12-28T03:30:21;11.90;99.90
39675;DHT22;27790;50.840;4.386;2023-12-28T03:32:47;12.00;99.90
39675;DHT22;27790;50.840;4.386;2023-12-28T03:35:12;12.00;99.90
39675;DHT22;27790;50.840;4.386;2023-12-28T03:37:38;11.80;99.90
39675;DHT22;27790;50.840;4.386;2023-12-28T03:40:04;11.70;99.90
39675;DHT22;27790;50.840;4.386;2023-12-28T03:42:30;11.70;99.90
39675;DHT22;27790;50.840;4.386;2023-12-28T03:44:55;11.80;99.90
39675;DHT22;27790;50.840;4.386;2023-12-28T03:47:21;11.90;99.90
39675;DHT22;27790;50.840;4.386;2023-12-28T03:49:46;11.80;99.90
39675;DHT22;27790;50.840;4.386;2023-12-28T03:52:12;11.80;99.90
39675;DHT22;27790;50.840;4.386;2023-12-28T03:54:37;11.70;99.90
39675;DHT22;27790;50.840;4.386;2023-12-28T03:57:04;11.80;99.90
39675;DHT22;27790;50.840;4.386;2023-12-28T03:59:30;11.80;99.90
39675;DHT22;27790;50.840;4.386;2023-12-28T04:01:55;12.00;99.90
39675;DHT22;27790;50.840;4.386;2023-12-28T04:04:21;12.20;99.90
39675;DHT22;27790;50.840;4.386;2023-12-28T04:06:46;12.20;99.90
39675;DHT22;27790;50.840;4.386;2023-12-28T04:09:12;12.10;99.90
39675;DHT22;27790;50.840;4.386;2023-12-28T04:11:38;12.10;99.90
39675;DHT22;27790;50.840;4.386;2023-12-28T04:14:03;12.00;99.90
39675;DHT22;27790;50.840;4.386;2023-12-28T04:16:29;11.90;99.90
39675;DHT22;27790;50.840;4.386;2023-12-28T04:18:54;12.00;99.90
39675;DHT22;27790;50.840;4.386;2023-12-28T04:21:20;11.90;99.90
39675;DHT22;27790;50.840;4.386;2023-12-28T04:23:45;11.80;99.90
39675;DHT22;27790;50.840;4.386;2023-12-28T04:26:14;11.70;99.90
39675;DHT22;27790;50.840;4.386;2023-12-28T04:28:42;11.80;99.90
39675;DHT22;27790;50.840;4.386;2023-12-28T04:31:08;11.80;99.90
39675;DHT22;27790;50.840;4.386;2023-12-28T04:33:34;11.70;99.90
39675;DHT22;27790;50.840;4.386;2023-12-28T04:36:03;11.80;99.90
39675;DHT22;27790;50.840;4.386;2023-12-28T04:38:29;11.80;99.90
39675;DHT22;27790;50.840;4.386;2023-12-28T04:40:55;11.70;99.90
39675;DHT22;27790;50.840;4.386;2023-12-28T04:43:21;11.70;99.90
39675;DHT22;27790;50.840;4.386;2023-12-28T04:45:49;11.80;99.90
39675;DHT22;27790;50.840;4.386;2023-12-28T04:48:15;11.80;99.90
39675;DHT22;27790;50.840;4.386;2023-12-28T04:50:40;11.70;99.90
39675;DHT22;27790;50.840;4.386;2023-12-28T04:53:06;11.70;99.90
39675;DHT22;27790;50.840;4.386;2023-12-28T04:55:31;11.70;99.90
39675;DHT22;27790;50.840;4.386;2023-12-28T04:57:57;11.70;99.90
39675;DHT22;27790;50.840;4.386;2023-12-28T05:00:22;11.60;99.90
39675;DHT22;27790;50.840;4.386;2023-12-28T05:02:48;11.50;99.90
39675;DHT22;27790;50.840;4.386;2023-12-28T05:05:14;11.60;99.90
39675;DHT22;27790;50.840;4.386;2023-12-28T05:07:39;11.50;99.90
39675;DHT22;27790;50.840;4.386;2023-12-28T05:10:05;11.50;99.90
39675;DHT22;27790;50.840;4.386;2023-12-28T05:12:31;11.50;99.90
39675;DHT22;27790;50.840;4.386;2023-12-28T05:14:56;11.50;99.90
39675;DHT22;27790;50.840;4.386;2023-12-28T05:17:22;11.50;99.90
39675;DHT22;27790;50.840;4.386;2023-12-28T05:19:47;11.30;99.90
39675;DHT22;27790;50.840;4.386;2023-12-28T05:22:13;11.40;99.90
39675;DHT22;27790;50.840;4.386;2023-12-28T05:24:38;11.40;99.90
39675;DHT22;27790;50.840;4.386;2023-12-28T05:27:04;11.40;99.90
39675;DHT22;27790;50.840;4.386;2023-12-28T05:29:29;11.40;99.90
39675;DHT22;27790;50.840;4.386;2023-12-28T05:31:55;11.50;99.90
39675;DHT22;27790;50.840;4.386;2023-12-28T05:34:21;11.50;99.90
39675;DHT22;27790;50.840;4.386;2023-12-28T05:36:46;11.60;99.90
39675;DHT22;27790;50.840;4.386;2023-12-28T05:39:12;11.70;99.90
39675;DHT22;27790;50.840;4.386;2023-12-28T05:41:40;11.80;99.90
39675;DHT22;27790;50.840;4.386;2023-12-28T05:44:06;11.80;99.90
39675;DHT22;27790;50.840;4.386;2023-12-28T05:46:31;11.80;99.90
39675;DHT22;27790;50.840;4.386;2023-12-28T05:48:57;11.80;99.90
39675;DHT22;27790;50.840;4.386;2023-12-28T05:51:23;11.90;99.90
39675;DHT22;27790;50.840;4.386;2023-12-28T05:53:48;11.70;99.90
39675;DHT22;27790;50.840;4.386;2023-12-28T05:56:14;11.70;99.90
39675;DHT22;27790;50.840;4.386;2023-12-28T05:58:39;11.70;99.90
39675;DHT22;27790;50.840;4.386;2023-12-28T06:01:05;11.60;99.90
39675;DHT22;27790;50.840;4.386;2023-12-28T06:03:31;11.50;99.90
39675;DHT22;27790;50.840;4.386;2023-12-28T06:05:57;11.50;99.90
39675;DHT22;27790;50.840;4.386;2023-12-28T06:08:22;11.40;99.90
39675;DHT22;27790;50.840;4.386;2023-12-28T06:10:48;11.50;99.90
39675;DHT22;27790;50.840;4.386;2023-12-28T06:13:13;11.50;99.90
39675;DHT22;27790;50.840;4.386;2023-12-28T06:15:40;11.50;99.90
39675;DHT22;27790;50.840;4.386;2023-12-28T06:18:05;11.60;99.90
39675;DHT22;27790;50.840;4.386;2023-12-28T06:20:31;11.50;99.90
39675;DHT22;27790;50.840;4.386;2023-12-28T06:22:56;11.40;99.90
39675;DHT22;27790;50.840;4.386;2023-12-28T06:25:22;11.40;99.90
39675;DHT22;27790;50.840;4.386;2023-12-28T06:27:48;11.30;99.90
39675;DHT22;27790;50.840;4.386;2023-12-28T06:30:14;11.20;99.90
39675;DHT22;27790;50.840;4.386;2023-12-28T06:32:39;11.20;99.90
39675;DHT22;27790;50.840;4.386;2023-12-28T06:35:05;11.20;99.90
39675;DHT22;27790;50.840;4.386;2023-12-28T06:37:31;11.30;99.90
39675;DHT22;27790;50.840;4.386;2023-12-28T06:39:56;11.20;99.90
39675;DHT22;27790;50.840;4.386;2023-12-28T06:42:22;11.20;99.90
39675;DHT22;27790;50.840;4.386;2023-12-28T06:44:48;11.20;99.90
39675;DHT22;27790;50.840;4.386;2023-12-28T06:47:13;11.10;99.90
39675;DHT22;27790;50.840;4.386;2023-12-28T06:49:39;11.10;99.90
39675;DHT22;27790;50.840;4.386;2023-12-28T06:52:04;11.20;99.90
39675;DHT22;27790;50.840;4.386;2023-12-28T06:54:30;11.10;99.90
39675;DHT22;27790;50.840;4.386;2023-12-28T06:56:55;11.20;99.90
39675;DHT22;27790;50.840;4.386;2023-12-28T06:59:21;11.10;99.90
39675;DHT22;27790;50.840;4.386;2023-12-28T07:01:46;11.20;99.90
39675;DHT22;27790;50.840;4.386;2023-12-28T07:04:13;11.10;99.90
39675;DHT22;27790;50.840;4.386;2023-12-28T07:06:39;11.10;99.90
39675;DHT22;27790;50.840;4.386;2023-12-28T07:09:05;11.20;99.90
39675;DHT22;27790;50.840;4.386;2023-12-28T07:11:31;11.10;99.90
39675;DHT22;27790;50.840;4.386;2023-12-28T07:13:56;11.00;99.90
39675;DHT22;27790;50.840;4.386;2023-12-28T07:16:22;10.90;99.90
39675;DHT22;27790;50.840;4.386;2023-12-28T07:18:47;10.90;99.90
39675;DHT22;27790;50.840;4.386;2023-12-28T07:21:13;11.00;99.90
39675;DHT22;27790;50.840;4.386;2023-12-28T07:23:39;11.10;99.90
39675;DHT22;27790;50.840;4.386;2023-12-28T07:26:04;11.00;99.90
39675;DHT22;27790;50.840;4.386;2023-12-28T07:28:30;11.00;99.90
39675;DHT22;27790;50.840;4.386;2023-12-28T07:30:56;11.00;99.90
39675;DHT22;27790;50.840;4.386;2023-12-28T07:33:22;11.00;99.90
39675;DHT22;27790;50.840;4.386;2023-12-28T07:35:47;11.00;99.90
39675;DHT22;27790;50.840;4.386;2023-12-28T07:38:13;11.00;99.90
39675;DHT22;27790;50.840;4.386;2023-12-28T07:40:39;11.10;99.90
39675;DHT22;27790;50.840;4.386;2023-12-28T07:43:05;11.20;99.90
39675;DHT22;27790;50.840;4.386;2023-12-28T07:45:31;11.10;99.90
39675;DHT22;27790;50.840;4.386;2023-12-28T07:47:58;11.10;99.90
39675;DHT22;27790;50.840;4.386;2023-12-28T07:50:24;11.10;99.90
39675;DHT22;27790;50.840;4.386;2023-12-28T07:52:50;11.20;99.90
39675;DHT22;27790;50.840;4.386;2023-12-28T07:55:16;11.20;99.90
39675;DHT22;27790;50.840;4.386;2023-12-28T07:57:42;11.10;99.90
39675;DHT22;27790;50.840;4.386;2023-12-28T08:00:08;11.00;99.90
39675;DHT22;27790;50.840;4.386;2023-12-28T08:02:34;11.10;99.90
39675;DHT22;27790;50.840;4.386;2023-12-28T08:05:00;11.20;99.90
39675;DHT22;27790;50.840;4.386;2023-12-28T08:07:25;11.10;99.90
39675;DHT22;27790;50.840;4.386;2023-12-28T08:09:51;11.00;99.90
39675;DHT22;27790;50.840;4.386;2023-12-28T08:12:16;11.20;99.90
39675;DHT22;27790;50.840;4.386;2023-12-28T08:14:46;11.30;99.90
39675;DHT22;27790;50.840;4.386;2023-12-28T08:17:12;11.20;99.90
39675;DHT22;27790;50.840;4.386;2023-12-28T08:19:37;11.20;99.90
39675;DHT22;27790;50.840;4.386;2023-12-28T08:22:03;11.30;99.90
39675;DHT22;27790;50.840;4.386;2023-12-28T08:24:29;11.30;99.90
39675;DHT22;27790;50.840;4.386;2023-12-28T08:26:54;11.30;99.90
39675;DHT22;27790;50.840;4.386;2023-12-28T08:29:24;11.40;99.90
39675;DHT22;27790;50.840;4.386;2023-12-28T08:31:50;11.40;99.90
39675;DHT22;27790;50.840;4.386;2023-12-28T08:34:15;11.40;99.90
39675;DHT22;27790;50.840;4.386;2023-12-28T08:36:41;11.50;99.90
39675;DHT22;27790;50.840;4.386;2023-12-28T08:39:07;11.50;99.90
39675;DHT22;27790;50.840;4.386;2023-12-28T08:41:32;11.40;99.90
39675;DHT22;27790;50.840;4.386;2023-12-28T08:43:58;11.50;99.90
39675;DHT22;27790;50.840;4.386;2023-12-28T08:46:23;11.70;99.90
39675;DHT22;27790;50.840;4.386;2023-12-28T08:48:52;11.70;99.90
39675;DHT22;27790;50.840;4.386;2023-12-28T08:51:17;11.80;99.90
39675;DHT22;27790;50.840;4.386;2023-12-28T08:53:43;11.90;99.90
39675;DHT22;27790;50.840;4.386;2023-12-28T08:56:20;11.80;99.90
39675;DHT22;27790;50.840;4.386;2023-12-28T08:58:46;11.80;99.90
39675;DHT22;27790;50.840;4.386;2023-12-28T09:01:20;11.60;99.90
39675;DHT22;27790;50.840;4.386;2023-12-28T09:03:52;11.70;99.90
39675;DHT22;27790;50.840;4.386;2023-12-28T09:06:18;11.80;99.90
39675;DHT22;27790;50.840;4.386;2023-12-28T09:08:46;11.80;99.90
39675;DHT22;27790;50.840;4.386;2023-12-28T09:11:13;11.90;99.90
39675;DHT22;27790;50.840;4.386;2023-12-28T09:13:39;11.80;99.90
39675;DHT22;27790;50.840;4.386;2023-12-28T09:16:07;11.90;99.90
39675;DHT22;27790;50.840;4.386;2023-12-28T09:18:33;11.90;99.90
39675;DHT22;27790;50.840;4.386;2023-12-28T09:20:59;11.90;99.90
39675;DHT22;27790;50.840;4.386;2023-12-28T09:23:24;11.90;99.90
39675;DHT22;27790;50.840;4.386;2023-12-28T09:25:50;11.80;99.90
39675;DHT22;27790;50.840;4.386;2023-12-28T09:28:15;11.90;99.90
39675;DHT22;27790;50.840;4.386;2023-12-28T09:30:41;11.90;99.90
39675;DHT22;27790;50.840;4.386;2023-12-28T09:33:06;11.80;99.90
39675;DHT22;27790;50.840;4.386;2023-12-28T09:35:32;11.90;99.90
39675;DHT22;27790;50.840;4.386;2023-12-28T09:37:58;11.90;99.90
39675;DHT22;27790;50.840;4.386;2023-12-28T09:40:24;12.00;99.90
39675;DHT22;27790;50.840;4.386;2023-12-28T09:45:39;12.00;99.90
39675;DHT22;27790;50.840;4.386;2023-12-28T09:48:05;12.00;99.90
39675;DHT22;27790;50.840;4.386;2023-12-28T09:50:32;12.10;99.90
39675;DHT22;27790;50.840;4.386;2023-12-28T09:52:58;12.10;99.90
39675;DHT22;27790;50.840;4.386;2023-12-28T09:55:24;12.30;99.90
39675;DHT22;27790;50.840;4.386;2023-12-28T09:57:51;12.30;99.90
39675;DHT22;27790;50.840;4.386;2023-12-28T10:00:17;12.30;99.90
39675;DHT22;27790;50.840;4.386;2023-12-28T10:02:44;12.30;99.90
39675;DHT22;27790;50.840;4.386;2023-12-28T10:05:16;12.30;99.90
39675;DHT22;27790;50.840;4.386;2023-12-28T10:07:43;12.40;99.90
39675;DHT22;27790;50.840;4.386;2023-12-28T10:10:09;12.40;99.90
39675;DHT22;27790;50.840;4.386;2023-12-28T10:12:35;12.50;99.90
39675;DHT22;27790;50.840;4.386;2023-12-28T10:15:00;12.60;99.90
39675;DHT22;27790;50.840;4.386;2023-12-28T10:17:26;12.70;99.90
39675;DHT22;27790;50.840;4.386;2023-12-28T10:19:53;12.70;99.90
39675;DHT22;27790;50.840;4.386;2023-12-28T10:22:19;12.70;99.90
39675;DHT22;27790;50.840;4.386;2023-12-28T10:24:45;12.80;99.90
39675;DHT22;27790;50.840;4.386;2023-12-28T10:27:15;12.90;99.90
39675;DHT22;27790;50.840;4.386;2023-12-28T10:29:40;12.90;99.90
39675;DHT22;27790;50.840;4.386;2023-12-28T10:32:06;13.00;99.90
39675;DHT22;27790;50.840;4.386;2023-12-28T10:34:31;12.90;99.90
39675;DHT22;27790;50.840;4.386;2023-12-28T10:36:59;12.90;99.90
39675;DHT22;27790;50.840;4.386;2023-12-28T10:39:25;12.90;99.90
39675;DHT22;27790;50.840;4.386;2023-12-28T10:41:54;13.00;99.90
39675;DHT22;27790;50.840;4.386;2023-12-28T10:44:23;12.90;99.90
39675;DHT22;27790;50.840;4.386;2023-12-28T10:46:55;13.00;99.90
39675;DHT22;27790;50.840;4.386;2023-12-28T10:49:24;13.00;99.90
39675;DHT22;27790;50.840;4.386;2023-12-28T10:51:52;13.00;99.90
39675;DHT22;27790;50.840;4.386;2023-12-28T10:56:56;13.00;99.90
39675;DHT22;27790;50.840;4.386;2023-12-28T11:01:56;13.10;99.90
39675;DHT22;27790;50.840;4.386;2023-12-28T11:04:42;13.20;99.90
39675;DHT22;27790;50.840;4.386;2023-12-28T11:07:10;13.10;99.90
39675;DHT22;27790;50.840;4.386;2023-12-28T11:09:38;13.20;99.90
39675;DHT22;27790;50.840;4.386;2023-12-28T11:12:07;13.20;99.90
39675;DHT22;27790;50.840;4.386;2023-12-28T11:14:34;13.20;99.90
39675;DHT22;27790;50.840;4.386;2023-12-28T11:17:00;13.20;99.90
39675;DHT22;27790;50.840;4.386;2023-12-28T11:19:27;13.20;99.90
39675;DHT22;27790;50.840;4.386;2023-12-28T11:21:54;13.30;99.90
39675;DHT22;27790;50.840;4.386;2023-12-28T11:24:22;13.40;99.90
39675;DHT22;27790;50.840;4.386;2023-12-28T11:26:54;13.30;99.90
39675;DHT22;27790;50.840;4.386;2023-12-28T11:29:20;13.30;99.90
39675;DHT22;27790;50.840;4.386;2023-12-28T11:31:51;13.50;99.90
39675;DHT22;27790;50.840;4.386;2023-12-28T11:34:17;13.50;99.90
39675;DHT22;27790;50.840;4.386;2023-12-28T11:36:49;13.40;99.90
39675;DHT22;27790;50.840;4.386;2023-12-28T11:39:31;13.40;99.90
39675;DHT22;27790;50.840;4.386;2023-12-28T11:42:06;13.50;99.90
39675;DHT22;27790;50.840;4.386;2023-12-28T11:44:43;13.40;99.90
39675;DHT22;27790;50.840;4.386;2023-12-28T11:47:23;13.60;99.90
39675;DHT22;27790;50.840;4.386;2023-12-28T11:52:43;13.60;99.90
39675;DHT22;27790;50.840;4.386;2023-12-28T11:55:09;13.50;99.90
39675;DHT22;27790;50.840;4.386;2023-12-28T11:57:36;13.50;99.90
39675;DHT22;27790;50.840;4.386;2023-12-28T12:00:03;13.50;99.90
39675;DHT22;27790;50.840;4.386;2023-12-28T12:02:29;13.40;99.90
39675;DHT22;27790;50.840;4.386;2023-12-28T12:04:55;13.40;99.90
39675;DHT22;27790;50.840;4.386;2023-12-28T12:07:27;13.40;99.90
39675;DHT22;27790;50.840;4.386;2023-12-28T12:09:58;13.40;99.90
39675;DHT22;27790;50.840;4.386;2023-12-28T12:12:24;13.40;99.90
39675;DHT22;27790;50.840;4.386;2023-12-28T12:14:50;13.40;99.90
39675;DHT22;27790;50.840;4.386;2023-12-28T12:17:16;13.40;99.90
39675;DHT22;27790;50.840;4.386;2023-12-28T12:19:42;13.30;99.90
39675;DHT22;27790;50.840;4.386;2023-12-28T12:22:08;13.40;99.90
39675;DHT22;27790;50.840;4.386;2023-12-28T12:24:33;13.30;99.90
39675;DHT22;27790;50.840;4.386;2023-12-28T12:27:01;13.30;99.90
39675;DHT22;27790;50.840;4.386;2023-12-28T12:29:29;13.40;99.90
39675;DHT22;27790;50.840;4.386;2023-12-28T12:31:55;13.30;99.90
39675;DHT22;27790;50.840;4.386;2023-12-28T12:34:21;13.30;99.90
39675;DHT22;27790;50.840;4.386;2023-12-28T12:36:47;13.40;99.90
39675;DHT22;27790;50.840;4.386;2023-12-28T12:39:14;13.30;99.90
39675;DHT22;27790;50.840;4.386;2023-12-28T12:41:40;13.30;99.90
39675;DHT22;27790;50.840;4.386;2023-12-28T12:44:05;13.40;99.90
39675;DHT22;27790;50.840;4.386;2023-12-28T12:46:33;13.30;99.90
39675;DHT22;27790;50.840;4.386;2023-12-28T12:48:59;13.30;99.90
39675;DHT22;27790;50.840;4.386;2023-12-28T12:51:26;13.20;99.90
39675;DHT22;27790;50.840;4.386;2023-12-28T12:53:58;13.20;99.90
39675;DHT22;27790;50.840;4.386;2023-12-28T12:56:26;13.30;99.90
39675;DHT22;27790;50.840;4.386;2023-12-28T12:58:52;13.20;99.90
39675;DHT22;27790;50.840;4.386;2023-12-28T13:01:18;13.10;99.90
39675;DHT22;27790;50.840;4.386;2023-12-28T13:03:45;13.20;99.90
39675;DHT22;27790;50.840;4.386;2023-12-28T13:06:11;13.20;99.90
39675;DHT22;27790;50.840;4.386;2023-12-28T13:08:36;13.20;99.90
39675;DHT22;27790;50.840;4.386;2023-12-28T13:11:02;13.20;99.90
39675;DHT22;27790;50.840;4.386;2023-12-28T13:13:28;13.10;99.90
39675;DHT22;27790;50.840;4.386;2023-12-28T13:15:53;13.00;99.90
39675;DHT22;27790;50.840;4.386;2023-12-28T13:18:19;13.00;99.90
39675;DHT22;27790;50.840;4.386;2023-12-28T13:20:44;13.10;99.90
39675;DHT22;27790;50.840;4.386;2023-12-28T13:23:11;13.00;99.90
39675;DHT22;27790;50.840;4.386;2023-12-28T13:25:37;13.00;99.90
39675;DHT22;27790;50.840;4.386;2023-12-28T13:28:03;13.10;99.90
39675;DHT22;27790;50.840;4.386;2023-12-28T13:30:29;13.00;99.90
39675;DHT22;27790;50.840;4.386;2023-12-28T13:32:57;13.10;99.90
39675;DHT22;27790;50.840;4.386;2023-12-28T13:35:23;13.00;99.90
39675;DHT22;27790;50.840;4.386;2023-12-28T13:37:48;13.00;99.90
39675;DHT22;27790;50.840;4.386;2023-12-28T13:40:14;13.00;99.90
39675;DHT22;27790;50.840;4.386;2023-12-28T13:42:40;13.00;99.90
39675;DHT22;27790;50.840;4.386;2023-12-28T13:45:07;13.00;99.90
39675;DHT22;27790;50.840;4.386;2023-12-28T13:47:32;13.00;99.90
39675;DHT22;27790;50.840;4.386;2023-12-28T13:52:27;12.80;99.90
39675;DHT22;27790;50.840;4.386;2023-12-28T13:54:53;12.80;99.90
39675;DHT22;27790;50.840;4.386;2023-12-28T13:57:19;12.90;99.90
39675;DHT22;27790;50.840;4.386;2023-12-28T13:59:44;12.90;99.90
39675;DHT22;27790;50.840;4.386;2023-12-28T14:02:10;13.00;99.90
39675;DHT22;27790;50.840;4.386;2023-12-28T14:04:35;13.10;99.70
39675;DHT22;27790;50.840;4.386;2023-12-28T14:07:01;13.10;99.90
39675;DHT22;27790;50.840;4.386;2023-12-28T14:09:26;13.00;99.90
39675;DHT22;27790;50.840;4.386;2023-12-28T14:11:52;12.90;99.90
39675;DHT22;27790;50.840;4.386;2023-12-28T14:14:17;12.90;99.90
39675;DHT22;27790;50.840;4.386;2023-12-28T14:16:43;12.90;99.90
39675;DHT22;27790;50.840;4.386;2023-12-28T14:19:08;12.90;99.90
39675;DHT22;27790;50.840;4.386;2023-12-28T14:21:37;12.90;99.90
39675;DHT22;27790;50.840;4.386;2023-12-28T14:24:04;12.80;99.90
39675;DHT22;27790;50.840;4.386;2023-12-28T14:26:32;12.80;99.90
39675;DHT22;27790;50.840;4.386;2023-12-28T14:28:59;12.80;99.90
39675;DHT22;27790;50.840;4.386;2023-12-28T14:31:25;12.80;99.90
39675;DHT22;27790;50.840;4.386;2023-12-28T14:33:52;12.80;99.90
39675;DHT22;27790;50.840;4.386;2023-12-28T14:36:35;12.80;99.90
39675;DHT22;27790;50.840;4.386;2023-12-28T14:39:04;12.70;99.90
39675;DHT22;27790;50.840;4.386;2023-12-28T14:41:36;12.80;99.90
39675;DHT22;27790;50.840;4.386;2023-12-28T14:44:02;12.80;99.90
39675;DHT22;27790;50.840;4.386;2023-12-28T14:46:28;12.80;99.90
39675;DHT22;27790;50.840;4.386;2023-12-28T14:48:55;12.80;99.90
39675;DHT22;27790;50.840;4.386;2023-12-28T14:51:21;12.60;99.90
39675;DHT22;27790;50.840;4.386;2023-12-28T14:53:47;12.60;99.90
39675;DHT22;27790;50.840;4.386;2023-12-28T14:56:13;12.50;99.90
39675;DHT22;27790;50.840;4.386;2023-12-28T14:58:39;12.50;99.90
39675;DHT22;27790;50.840;4.386;2023-12-28T15:01:05;12.50;99.90
39675;DHT22;27790;50.840;4.386;2023-12-28T15:03:31;12.60;99.90
39675;DHT22;27790;50.840;4.386;2023-12-28T15:05:57;12.50;99.90
39675;DHT22;27790;50.840;4.386;2023-12-28T15:08:23;12.40;99.90
39675;DHT22;27790;50.840;4.386;2023-12-28T15:10:50;12.40;99.90
39675;DHT22;27790;50.840;4.386;2023-12-28T15:13:16;12.40;99.90
39675;DHT22;27790;50.840;4.386;2023-12-28T15:15:43;12.50;99.90
39675;DHT22;27790;50.840;4.386;2023-12-28T15:18:09;12.40;99.90
39675;DHT22;27790;50.840;4.386;2023-12-28T15:20:35;12.40;99.90
39675;DHT22;27790;50.840;4.386;2023-12-28T15:23:01;12.40;99.90
39675;DHT22;27790;50.840;4.386;2023-12-28T15:25:27;12.40;99.90
39675;DHT22;27790;50.840;4.386;2023-12-28T15:27:52;12.30;99.90
39675;DHT22;27790;50.840;4.386;2023-12-28T15:30:18;12.20;99.90
39675;DHT22;27790;50.840;4.386;2023-12-28T15:32:44;12.10;99.90
39675;DHT22;27790;50.840;4.386;2023-12-28T15:35:13;12.30;99.90
39675;DHT22;27790;50.840;4.386;2023-12-28T15:37:40;12.30;99.90